Time;durP1;ratioP1;P1;durP2;ratioP2;P2;SDS_P1;SDS_P2;PMS_P1;PMS_P2;Temp;Humidity;BMP_temperature;BMP_pressure;BME280_temperature;BME280_humidity;BME280_pressure;Samples;Min_cycle;Max_cycle;Signal;HPM_P1;HPM_P2
2022/11/03 00:01:14;;;;;;;1.08;0.68;;;;;;;18.69;62.47;96987.72;10557575;28;20397;-28
2022/11/03 00:06:15;;;;;;;0.83;0.43;;;;;;;18.70;60.70;96983.47;10555818;28;20030;-29
2022/11/03 00:11:15;;;;;;;1.47;0.80;;;;;;;18.63;60.55;96975.00;10562928;28;20039;-28
2022/11/03 00:16:16;;;;;;;1.33;0.70;;;;;;;18.58;60.21;96973.28;10552437;28;20020;-29
2022/11/03 00:21:16;;;;;;;1.52;0.60;;;;;;;18.63;59.54;96979.19;10560583;28;20370;-29
2022/11/03 00:26:20;;;;;;;0.85;0.60;;;;;;;18.63;59.37;96976.66;10555113;28;20027;-28
2022/11/03 00:31:22;;;;;;;1.27;0.60;;;;;;;18.60;59.24;96974.13;10557001;28;20023;-30
2022/11/03 00:36:44;;;;;;;0.80;0.35;;;;;;;18.62;59.17;96987.66;10560720;28;20028;-28
2022/11/03 00:41:45;;;;;;;0.90;0.50;;;;;;;18.62;59.12;96985.97;10557804;28;20034;-30
2022/11/03 00:46:45;;;;;;;1.73;0.57;;;;;;;18.61;58.98;96975.81;10554109;28;20030;-30
2022/11/03 00:51:45;;;;;;;1.20;0.50;;;;;;;18.60;58.98;96964.00;10554966;28;20024;-28
2022/11/03 00:56:46;;;;;;;0.83;0.60;;;;;;;18.57;61.51;96953.84;10562639;28;20039;-28
2022/11/03 01:01:46;;;;;;;1.37;0.40;;;;;;;18.63;62.37;96958.91;10559668;28;20296;-29
2022/11/03 01:06:49;;;;;;;0.87;0.50;;;;;;;18.66;62.44;96967.38;10555206;28;20024;-29
2022/11/03 01:12:04;;;;;;;2.67;0.70;;;;;;;18.67;60.15;96955.56;10561223;28;20707;-28
2022/11/03 01:17:13;;;;;;;1.27;0.60;;;;;;;18.62;59.87;96947.94;10560248;28;20034;-29
2022/11/03 01:22:14;;;;;;;1.88;0.60;;;;;;;18.63;60.14;96953.84;10570104;28;20495;-28
2022/11/03 01:27:19;;;;;;;1.23;0.65;;;;;;;18.60;59.35;96948.78;10566691;28;20031;-28
2022/11/03 01:32:19;;;;;;;1.60;0.70;;;;;;;18.60;58.94;96938.63;10562066;28;20057;-29
2022/11/03 01:37:19;;;;;;;1.30;1.00;;;;;;;18.60;58.60;96933.56;10565936;28;20478;-29
2022/11/03 01:42:20;;;;;;;1.03;0.50;;;;;;;18.60;58.54;96933.56;10564471;28;20046;-28
2022/11/03 01:47:22;;;;;;;1.23;0.60;;;;;;;18.59;58.42;96932.69;10567202;28;20100;-30
2022/11/03 01:52:32;;;;;;;0.70;0.50;;;;;;;18.58;58.52;96914.97;10564284;28;20297;-29
2022/11/03 01:58:02;;;;;;;1.80;0.63;;;;;;;18.54;58.45;96898.03;10561906;28;20055;-29
2022/11/03 02:03:03;;;;;;;0.85;0.50;;;;;;;18.59;61.53;96898.91;10551380;28;20043;-28
2022/11/03 02:08:18;;;;;;;1.38;0.50;;;;;;;18.62;62.00;96886.22;10563332;28;20170;-29
2022/11/03 02:13:21;;;;;;;0.77;0.40;;;;;;;18.62;62.04;96887.09;10565287;28;20024;-29
2022/11/03 02:18:25;;;;;;;0.63;0.47;;;;;;;18.61;60.13;96869.31;10564585;28;20109;-27
2022/11/03 02:23:38;;;;;;;1.60;0.80;;;;;;;18.59;59.82;96850.72;10561104;28;20494;-28
2022/11/03 02:28:38;;;;;;;0.68;0.47;;;;;;;18.59;59.59;96838.06;10568777;28;20059;-29
2022/11/03 02:33:54;;;;;;;1.13;0.55;;;;;;;18.58;59.23;96833.84;10560425;28;20062;-28
2022/11/03 02:39:15;;;;;;;1.35;0.55;;;;;;;18.57;58.96;96822.00;10558733;28;20489;-29
2022/11/03 02:44:18;;;;;;;1.20;0.68;;;;;;;18.57;59.00;96822.00;10560813;28;20478;-29
2022/11/03 02:49:19;;;;;;;1.27;0.60;;;;;;;18.56;58.59;96808.47;10565766;28;20042;-29
2022/11/03 02:54:24;;;;;;;0.70;0.50;;;;;;;18.57;58.73;96796.66;10559016;28;20414;-29
2022/11/03 02:59:47;;;;;;;1.43;0.90;;;;;;;18.56;58.36;96794.94;10557107;28;20054;-29
2022/11/03 03:04:53;;;;;;;1.08;0.50;;;;;;;18.56;58.39;96784.78;10554130;28;20065;-30
2022/11/03 03:09:59;;;;;;;0.77;0.63;;;;;;;18.57;61.27;96781.44;10558056;28;20088;-29
2022/11/03 03:15:02;;;;;;;0.77;0.60;;;;;;;18.59;61.88;96764.53;10562586;28;20493;-29
2022/11/03 03:20:27;;;;;;;0.85;0.50;;;;;;;18.59;61.69;96765.34;10559895;28;20032;-29
2022/11/03 03:25:36;;;;;;;1.85;0.60;;;;;;;18.59;59.84;96750.13;10564010;28;20053;-28
2022/11/03 03:30:37;;;;;;;0.88;0.68;;;;;;;18.57;59.73;96748.47;10560627;28;20063;-28
2022/11/03 03:35:41;;;;;;;0.73;0.52;;;;;;;18.55;59.51;96737.47;10562235;28;20031;-30
2022/11/03 03:40:45;;;;;;;0.93;0.60;;;;;;;18.53;59.63;96721.41;10559681;28;20031;-29
2022/11/03 03:45:50;;;;;;;1.00;0.70;;;;;;;18.54;59.36;96718.03;10556325;28;20040;-29
2022/11/03 03:50:51;;;;;;;0.93;0.43;;;;;;;18.53;59.23;96704.53;10557325;28;20039;-29
2022/11/03 03:55:52;;;;;;;1.15;0.70;;;;;;;18.54;59.13;96697.75;10563986;28;20028;-29
2022/11/03 04:00:52;;;;;;;0.73;0.60;;;;;;;18.55;59.02;96702.81;10562979;28;20409;-29
2022/11/03 04:05:53;;;;;;;0.77;0.50;;;;;;;18.54;58.80;96692.66;10564891;28;20289;-28
2022/11/03 04:26:50;;;;;;;0.40;0.30;;;;;;;18.55;61.49;96681.69;10555418;28;20055;-28
2022/11/03 04:31:50;;;;;;;1.57;0.90;;;;;;;18.47;60.06;96661.41;10561621;28;20043;-29
2022/11/03 04:36:50;;;;;;;0.80;0.60;;;;;;;18.54;59.87;96659.72;10560850;28;20031;-29
2022/11/03 04:41:51;;;;;;;1.03;0.73;;;;;;;18.54;59.72;96660.56;10558523;28;20763;-28
2022/11/03 04:46:53;;;;;;;0.80;0.40;;;;;;;18.52;59.76;96651.28;10549301;28;20421;-29
2022/11/03 04:51:53;;;;;;;1.70;0.75;;;;;;;18.52;59.47;96642.00;10558354;28;20469;-29
2022/11/03 04:56:54;;;;;;;1.37;0.60;;;;;;;18.47;59.83;96628.47;10563274;28;20027;-29
2022/11/03 05:01:55;;;;;;;0.90;0.52;;;;;;;18.52;59.86;96638.59;10563473;28;20301;-28
2022/11/03 05:06:56;;;;;;;1.00;0.60;;;;;;;18.51;58.91;96635.19;10554804;27;20089;-28
2022/11/03 05:11:56;;;;;;;0.77;0.55;;;;;;;18.43;58.20;96636.06;10559722;28;20039;-29
2022/11/03 05:16:58;;;;;;;1.53;0.60;;;;;;;18.42;57.82;96634.38;10565232;28;20067;-28
2022/11/03 05:22:01;;;;;;;1.23;0.70;;;;;;;18.50;58.75;96627.63;10570995;28;20293;-28
2022/11/03 05:27:01;;;;;;;2.25;0.60;;;;;;;18.46;60.51;96623.38;10573705;27;20031;-28
2022/11/03 05:32:09;;;;;;;2.53;0.83;;;;;;;18.45;60.50;96604.81;10558797;28;20031;-29
2022/11/03 05:37:25;;;;;;;1.50;0.70;;;;;;;18.49;56.91;96605.66;10566726;28;20283;-30
2022/11/03 05:42:38;;;;;;;2.42;0.68;;;;;;;18.52;57.43;96586.22;10558276;28;20486;-28
2022/11/03 05:47:39;;;;;;;4.82;0.95;;;;;;;18.32;57.37;96584.56;10569821;28;20473;-30
2022/11/03 05:52:40;;;;;;;10.80;1.25;;;;;;;18.49;57.92;96573.53;10560097;28;20031;-28
2022/11/03 05:57:40;;;;;;;7.13;1.25;;;;;;;18.30;57.41;96563.41;10553793;28;20027;-28
2022/11/03 06:02:42;;;;;;;5.73;1.20;;;;;;;18.32;58.68;96561.75;10564467;28;20042;-29
2022/11/03 06:07:42;;;;;;;2.03;0.70;;;;;;;18.42;59.56;96565.94;10561322;28;20487;-29
2022/11/03 06:12:43;;;;;;;1.98;0.90;;;;;;;18.42;59.84;96571.03;10556526;28;20034;-29
2022/11/03 06:17:43;;;;;;;2.57;1.30;;;;;;;18.41;60.17;96561.72;10564045;28;20031;-30
2022/11/03 06:22:44;;;;;;;4.37;1.03;;;;;;;18.43;59.90;96555.78;10567719;28;20641;-29
2022/11/03 06:27:45;;;;;;;2.22;0.73;;;;;;;18.45;60.52;96548.19;10567645;28;20334;-29
2022/11/03 06:32:45;;;;;;;1.67;0.75;;;;;;;18.50;60.50;96551.56;10552840;28;20119;-30
2022/11/03 06:37:46;;;;;;;1.40;0.60;;;;;;;18.54;60.58;96551.56;10563719;28;20172;-28
2022/11/03 06:42:46;;;;;;;4.70;0.90;;;;;;;18.52;60.85;96544.78;10561179;28;20035;-29
2022/11/03 06:47:47;;;;;;;2.55;0.85;;;;;;;18.46;60.68;96544.81;10569542;28;20038;-30
2022/11/03 06:52:48;;;;;;;5.13;0.98;;;;;;;18.44;60.79;96541.44;10560032;28;20485;-29
2022/11/03 06:57:54;;;;;;;1.73;0.68;;;;;;;18.43;60.73;96529.63;10558742;28;20036;-30
2022/11/03 07:03:20;;;;;;;2.05;0.93;;;;;;;18.45;60.85;96535.50;10564263;28;20120;-30
2022/11/03 07:08:20;;;;;;;1.60;0.85;;;;;;;18.43;61.19;96525.38;10565521;28;20560;-29
2022/11/03 07:13:23;;;;;;;1.30;0.73;;;;;;;18.45;60.88;96517.78;10563723;28;20115;-30
2022/11/03 07:18:34;;;;;;;1.55;0.50;;;;;;;18.40;60.96;96504.28;10559288;28;20326;-29
2022/11/03 07:23:34;;;;;;;1.05;0.75;;;;;;;18.42;61.25;96512.72;10566512;28;20036;-30
2022/11/03 07:28:37;;;;;;;2.47;0.90;;;;;;;18.39;61.26;96512.72;10561194;28;20032;-29
2022/11/03 07:33:38;;;;;;;1.60;0.55;;;;;;;18.42;61.43;96512.72;10557204;28;20028;-30
2022/11/03 07:38:38;;;;;;;1.55;0.60;;;;;;;18.49;61.25;96512.69;10559524;28;20050;-29
2022/11/03 07:43:39;;;;;;;0.52;0.40;;;;;;;18.54;61.20;96502.53;10557337;28;20227;-29
2022/11/03 07:48:48;;;;;;;0.80;0.60;;;;;;;18.51;61.32;96508.44;10563574;28;20025;-29
2022/11/03 07:53:56;;;;;;;2.28;0.65;;;;;;;18.47;61.23;96496.66;10552968;28;20079;-29
2022/11/03 07:59:12;;;;;;;1.02;0.45;;;;;;;18.44;61.27;96485.66;10558051;28;20092;-29
2022/11/03 08:04:19;;;;;;;2.03;0.50;;;;;;;18.40;61.43;96478.94;10562867;28;20038;-29
2022/11/03 08:09:20;;;;;;;1.73;0.75;;;;;;;18.41;61.36;96475.56;10558982;28;20050;-29
2022/11/03 08:14:20;;;;;;;1.75;0.70;;;;;;;18.40;61.50;96473.88;10563934;28;20038;-29
2022/11/03 08:19:20;;;;;;;0.70;0.60;;;;;;;18.40;61.51;96463.72;10562456;28;20035;-29
2022/11/03 08:24:21;;;;;;;0.97;0.63;;;;;;;18.41;61.34;96455.28;10559163;28;20408;-29
2022/11/03 08:29:23;;;;;;;0.70;0.50;;;;;;;18.38;61.67;96452.72;10561555;28;20386;-29
2022/11/03 08:34:24;;;;;;;0.98;0.70;;;;;;;18.39;61.68;96454.41;10569818;28;20042;-29
2022/11/03 08:39:24;;;;;;;0.75;0.40;;;;;;;18.38;61.50;96458.66;10565206;28;20404;-29
2022/11/03 08:44:25;;;;;;;1.80;0.60;;;;;;;18.48;61.40;96459.44;10570381;28;20032;-29
2022/11/03 08:49:25;;;;;;;1.60;0.70;;;;;;;18.48;61.45;96446.78;10568899;28;20031;-30
2022/11/03 08:54:26;;;;;;;1.08;0.98;;;;;;;18.50;61.40;96440.03;10546666;28;20111;-29
2022/11/03 08:59:26;;;;;;;0.60;0.40;;;;;;;18.46;61.32;96438.34;10561238;28;20023;-29
2022/11/03 09:04:26;;;;;;;1.17;0.70;;;;;;;18.39;61.52;96422.31;10567300;28;20060;-29
2022/11/03 09:09:27;;;;;;;1.13;0.53;;;;;;;18.39;61.50;96421.47;10571704;28;20024;-29
2022/11/03 09:14:27;;;;;;;0.97;0.50;;;;;;;18.39;61.60;96416.41;10567158;28;20076;-29
2022/11/03 09:19:27;;;;;;;1.20;0.57;;;;;;;18.39;61.77;96412.19;10563914;28;20028;-31
2022/11/03 09:24:29;;;;;;;1.40;0.85;;;;;;;18.38;61.60;96409.66;10568305;28;20673;-29
2022/11/03 09:29:29;;;;;;;1.33;0.80;;;;;;;18.40;61.53;96402.91;10567945;28;20421;-29
2022/11/03 09:34:30;;;;;;;0.80;0.50;;;;;;;18.40;61.49;96391.06;10567567;28;20031;-30
2022/11/03 09:39:30;;;;;;;1.80;0.60;;;;;;;18.40;61.58;96385.16;10566299;28;20227;-29
2022/11/03 09:44:33;;;;;;;1.33;0.50;;;;;;;18.39;61.55;96386.84;10563537;28;20035;-29
2022/11/03 09:49:35;;;;;;;0.50;0.30;;;;;;;18.46;61.62;96377.50;10567007;28;20024;-29
2022/11/03 09:54:35;;;;;;;0.60;0.30;;;;;;;18.49;61.18;96369.91;10565237;28;20081;-31
2022/11/03 09:59:36;;;;;;;0.97;0.60;;;;;;;18.49;61.60;96369.91;10558607;28;20043;-29
2022/11/03 10:04:37;;;;;;;1.00;0.43;;;;;;;18.50;61.72;96374.13;10563895;28;20536;-29
2022/11/03 10:09:44;;;;;;;0.50;0.50;;;;;;;18.47;61.43;96366.50;10568432;28;20047;-28
2022/11/03 10:14:45;;;;;;;0.47;0.47;;;;;;;18.43;61.35;96350.47;10556840;28;20081;-30
2022/11/03 10:19:49;;;;;;;0.40;0.40;;;;;;;18.41;61.30;96323.47;10560402;28;20153;-29
2022/11/03 10:25:25;;;;;;;1.27;0.85;;;;;;;18.42;61.40;96317.56;10565533;28;20119;-29
2022/11/03 10:30:25;;;;;;;0.70;0.40;;;;;;;18.41;61.73;96306.56;10562265;28;20447;-29
2022/11/03 10:35:33;;;;;;;0.80;0.57;;;;;;;18.42;61.54;96289.66;10565021;28;20023;-29
2022/11/03 10:40:35;;;;;;;1.27;1.08;;;;;;;18.44;61.37;96277.81;10562150;28;20461;-30
2022/11/03 10:45:36;;;;;;;0.20;0.20;;;;;;;18.44;61.41;96265.16;10562829;28;20042;-29
2022/11/03 10:50:40;;;;;;;0.60;0.40;;;;;;;18.43;61.38;96264.28;10559787;28;20042;-30
2022/11/03 10:55:40;;;;;;;0.60;0.50;;;;;;;18.31;61.86;96216.25;10567808;28;20270;-28
2022/11/03 11:00:41;;;;;;;0.97;0.67;;;;;;;18.52;61.76;96236.38;10561937;28;20509;-29
2022/11/03 11:05:47;;;;;;;0.38;0.30;;;;;;;18.48;61.66;96233.84;10555780;28;20689;-30
2022/11/03 11:10:47;;;;;;;0.80;0.70;;;;;;;18.49;61.48;96225.41;10564325;28;20043;-29
2022/11/03 11:15:54;;;;;;;1.17;0.70;;;;;;;18.46;61.38;96217.81;10558967;28;20020;-29
2022/11/03 11:20:59;;;;;;;0.95;0.50;;;;;;;18.44;61.45;96217.00;10557885;28;20405;-29
2022/11/03 11:26:13;;;;;;;0.77;0.65;;;;;;;18.43;61.66;96192.50;10556987;28;20423;-31
2022/11/03 11:31:25;;;;;;;0.85;0.45;;;;;;;18.41;61.63;96186.63;10558728;28;20031;-29
2022/11/03 11:36:26;;;;;;;1.10;1.00;;;;;;;18.43;61.42;96180.66;10563777;28;20477;-29
2022/11/03 11:42:12;;;;;;;0.57;0.40;;;;;;;18.39;61.70;96162.94;10562248;28;20038;-30
2022/11/03 11:47:23;;;;;;;0.93;0.68;;;;;;;18.39;61.42;96151.13;10529358;28;20312;-30
2022/11/03 11:52:23;;;;;;;0.75;0.40;;;;;;;18.42;61.50;96142.66;10558448;28;20044;-30
2022/11/03 11:57:24;;;;;;;1.50;0.57;;;;;;;18.42;61.60;96137.59;10559225;28;20476;-30
2022/11/03 12:02:28;;;;;;;0.43;0.40;;;;;;;18.49;61.82;96118.97;10559597;28;20277;-29
2022/11/03 12:07:33;;;;;;;1.55;0.95;;;;;;;18.51;61.78;96102.03;10555607;28;20032;-29
2022/11/03 12:12:34;;;;;;;0.35;0.30;;;;;;;18.49;61.80;96089.38;10564137;28;20033;-29
2022/11/03 12:17:34;;;;;;;0.32;0.32;;;;;;;18.46;61.52;96068.28;10556910;28;20049;-29
2022/11/03 12:22:40;;;;;;;0.20;0.20;;;;;;;18.43;61.59;96048.84;10557831;28;20028;-30
2022/11/03 12:27:41;;;;;;;0.40;0.40;;;;;;;18.42;61.66;96041.28;10558846;28;20068;-29
2022/11/03 12:32:42;;;;;;;0.50;0.50;;;;;;;18.42;61.58;96041.28;10553076;28;20034;-29
2022/11/03 12:37:42;;;;;;;0.20;0.20;;;;;;;18.43;61.49;96020.16;10559269;28;20042;-29
2022/11/03 12:42:43;;;;;;;0.40;0.38;;;;;;;18.43;61.33;96013.38;10556051;28;20285;-29
2022/11/03 12:47:43;;;;;;;1.20;0.57;;;;;;;18.43;61.64;95999.88;10553260;28;20036;-30
2022/11/03 12:52:43;;;;;;;0.53;0.50;;;;;;;18.41;61.58;95987.22;10564690;28;20400;-30
2022/11/03 12:57:45;;;;;;;0.43;0.30;;;;;;;18.40;61.58;95977.94;10563698;28;20289;-30
2022/11/03 13:02:45;;;;;;;0.60;0.57;;;;;;;18.39;61.69;95970.34;10558483;28;20044;-30
2022/11/03 13:07:46;;;;;;;0.63;0.60;;;;;;;18.47;61.92;95963.50;10559468;28;20498;-30
2022/11/03 13:12:46;;;;;;;0.47;0.40;;;;;;;18.52;61.65;95961.75;10560747;28;20028;-30
2022/11/03 13:17:46;;;;;;;0.40;0.40;;;;;;;18.49;61.94;95951.66;10569418;28;20034;-29
2022/11/03 13:22:47;;;;;;;0.30;0.30;;;;;;;18.46;61.49;95931.41;10565435;28;20384;-29
2022/11/03 13:27:52;;;;;;;0.60;0.20;;;;;;;18.40;61.57;95921.38;10556096;28;20074;-29
2022/11/03 13:32:53;;;;;;;0.40;0.35;;;;;;;18.38;61.59;95901.09;10564896;28;20582;-29
2022/11/03 13:37:53;;;;;;;0.22;0.22;;;;;;;18.39;61.68;95895.19;10567000;28;20118;-29
2022/11/03 13:42:53;;;;;;;0.40;0.40;;;;;;;18.40;61.79;95880.81;10565293;28;20116;-30
2022/11/03 13:47:54;;;;;;;0.43;0.30;;;;;;;18.39;61.89;95867.31;10565801;28;20663;-29
2022/11/03 13:52:54;;;;;;;0.90;0.63;;;;;;;18.40;61.59;95870.69;10566014;28;20300;-30
2022/11/03 13:57:54;;;;;;;0.40;0.30;;;;;;;18.41;61.59;95863.03;10563142;28;20031;-30
2022/11/03 14:02:55;;;;;;;0.47;0.47;;;;;;;18.36;62.02;95833.56;10558699;28;20093;-30
2022/11/03 14:07:55;;;;;;;0.30;0.30;;;;;;;18.39;61.91;95834.34;10564615;28;20285;-30
2022/11/03 14:12:56;;;;;;;0.87;0.40;;;;;;;18.46;61.85;95855.38;10537450;27;20037;-29
2022/11/03 14:17:56;;;;;;;1.87;0.70;;;;;;;18.50;61.67;95852.78;10551418;28;20286;-29
2022/11/03 14:22:56;;;;;;;3.23;2.07;;;;;;;18.48;60.88;95838.44;10547658;28;20040;-29
2022/11/03 14:27:57;;;;;;;3.88;1.27;;;;;;;18.44;61.25;95827.53;10548094;28;20294;-30
2022/11/03 14:32:57;;;;;;;1.73;0.90;;;;;;;18.39;61.54;95813.22;10552335;28;20473;-30
2022/11/03 14:37:57;;;;;;;0.80;0.80;;;;;;;18.37;61.68;95789.63;10540809;27;20043;-29
2022/11/03 14:42:59;;;;;;;2.20;1.00;;;;;;;18.31;61.82;95766.91;10552433;28;20036;-29
2022/11/03 14:47:59;;;;;;;1.00;0.80;;;;;;;18.38;61.69;95773.56;10563674;28;20402;-29
2022/11/03 14:53:00;;;;;;;1.30;1.00;;;;;;;18.37;61.69;95764.28;10561872;28;20100;-29
2022/11/03 14:58:00;;;;;;;2.60;1.23;;;;;;;18.39;61.55;95758.34;10560455;28;20036;-29
2022/11/03 15:03:01;;;;;;;2.25;1.77;;;;;;;18.37;61.64;95754.16;10562979;28;20331;-29
2022/11/03 15:08:01;;;;;;;4.50;1.67;;;;;;;18.38;61.56;95735.53;10559883;28;20040;-29
2022/11/03 15:13:02;;;;;;;3.22;1.90;;;;;;;18.39;61.57;95712.72;10562051;28;20062;-29
2022/11/03 15:18:03;;;;;;;5.87;1.93;;;;;;;18.41;61.59;95677.22;10558100;28;20055;-31
2022/11/03 15:23:05;;;;;;;5.50;2.25;;;;;;;18.49;61.83;95675.41;10562867;28;20023;-29
2022/11/03 15:28:05;;;;;;;2.75;2.33;;;;;;;18.49;61.34;95681.31;10551979;28;20047;-30
2022/11/03 15:33:06;;;;;;;3.92;1.80;;;;;;;18.46;61.78;95672.91;10557663;28;20436;-29
2022/11/03 15:38:06;;;;;;;4.00;2.30;;;;;;;18.41;61.91;95665.38;10555301;28;20035;-29
2022/11/03 15:43:07;;;;;;;3.37;2.00;;;;;;;18.39;61.78;95672.19;10562059;28;20109;-30
2022/11/03 15:48:08;;;;;;;2.33;1.73;;;;;;;18.39;61.63;95681.47;10558493;28;20793;-30
2022/11/03 15:53:08;;;;;;;7.20;2.40;;;;;;;18.43;61.78;95710.97;10554357;28;20051;-29
2022/11/03 15:58:09;;;;;;;2.60;1.73;;;;;;;18.43;61.67;95713.50;10561699;28;20038;-29
2022/11/03 16:03:09;;;;;;;2.30;1.40;;;;;;;18.44;61.46;95710.13;10561145;28;20035;-29
2022/11/03 16:08:09;;;;;;;5.23;1.90;;;;;;;18.44;61.56;95707.59;10558944;28;20039;-29
2022/11/03 16:13:10;;;;;;;3.20;2.20;;;;;;;18.43;61.78;95686.47;10559704;28;20277;-29
2022/11/03 16:18:10;;;;;;;4.20;2.00;;;;;;;18.41;61.53;95667.91;10556337;28;20028;-29
2022/11/03 16:23:11;;;;;;;4.57;2.47;;;;;;;18.47;61.73;95656.84;10561921;28;20036;-30
2022/11/03 16:28:11;;;;;;;3.17;2.70;;;;;;;18.49;61.89;95653.41;10550760;28;20050;-30
2022/11/03 16:33:12;;;;;;;4.85;2.95;;;;;;;18.51;61.65;95640.72;10557456;28;20304;-29
2022/11/03 16:38:14;;;;;;;3.30;2.60;;;;;;;18.41;61.79;95639.22;10561203;28;20031;-29
2022/11/03 16:43:14;;;;;;;3.30;3.00;;;;;;;18.46;61.72;95632.34;10560292;28;20031;-29
2022/11/03 16:48:14;;;;;;;4.37;3.27;;;;;;;18.45;61.63;95623.94;10554799;27;20042;-28
2022/11/03 16:53:15;;;;;;;5.53;2.93;;;;;;;18.46;60.77;95628.13;10550355;27;20024;-29
2022/11/03 16:58:15;;;;;;;4.73;3.03;;;;;;;18.46;61.16;95623.06;10558613;28;20022;-29
2022/11/03 17:03:16;;;;;;;6.25;2.65;;;;;;;18.41;61.30;95617.22;10574909;28;20482;-30
2022/11/03 17:08:16;;;;;;;9.38;3.50;;;;;;;18.48;61.45;95625.56;10565985;28;20084;-28
2022/11/03 17:13:16;;;;;;;9.57;4.00;;;;;;;18.47;61.52;95642.47;10567241;28;20028;-29
2022/11/03 17:18:17;;;;;;;7.00;4.53;;;;;;;18.44;61.64;95623.94;10564140;27;20030;-28
2022/11/03 17:23:18;;;;;;;6.53;3.53;;;;;;;18.47;61.58;95645.00;10568074;27;20034;-29
2022/11/03 17:28:18;;;;;;;5.72;3.67;;;;;;;18.46;61.75;95647.56;10565012;27;20028;-29
2022/11/03 17:33:18;;;;;;;7.25;4.97;;;;;;;18.44;62.13;95659.44;10558907;28;20067;-32
2022/11/03 17:38:19;;;;;;;6.80;4.55;;;;;;;18.46;62.42;95680.50;10559135;28;20032;-29
2022/11/03 17:43:21;;;;;;;7.75;4.63;;;;;;;18.46;62.23;95708.38;10550913;28;20039;-29
2022/11/03 17:48:22;;;;;;;6.45;4.20;;;;;;;18.44;62.21;95722.78;10553004;28;20046;-29
2022/11/03 17:53:30;;;;;;;4.80;3.55;;;;;;;18.46;61.69;95713.47;10556107;28;20031;-30
2022/11/03 17:58:36;;;;;;;6.50;3.78;;;;;;;18.40;61.89;95694.13;10560563;28;20023;-29
2022/11/03 18:03:36;;;;;;;;;;;;;;;18.50;62.34;95666.94;10559803;28;20031;-29
2022/11/03 18:08:37;;;;;;;9.52;5.30;;;;;;;18.43;62.40;95647.63;10566224;28;19919;-29
2022/11/03 18:13:37;;;;;;;11.47;5.50;;;;;;;18.51;62.31;95645.81;10551960;27;20057;-29
2022/11/03 18:18:44;;;;;;;11.48;6.75;;;;;;;18.52;62.63;95632.25;10555436;27;20444;-30
2022/11/03 18:23:45;;;;;;;8.77;5.38;;;;;;;18.50;62.44;95611.19;10556700;28;20198;-30
2022/11/03 18:28:46;;;;;;;7.68;4.95;;;;;;;18.48;62.57;95590.06;10553127;27;20031;-30
2022/11/03 18:33:47;;;;;;;8.00;4.78;;;;;;;18.46;62.39;95587.59;10561496;28;20476;-30
2022/11/03 18:38:47;;;;;;;13.80;7.97;;;;;;;18.50;63.52;95576.53;10543211;27;20074;-32
2022/11/03 18:43:48;;;;;;;12.10;7.57;;;;;;;18.52;63.44;95558.75;10555044;27;20140;-31
2022/11/03 18:48:48;;;;;;;11.10;6.97;;;;;;;18.53;63.36;95563.81;10553688;28;20032;-31
2022/11/03 18:53:49;;;;;;;10.73;6.88;;;;;;;18.53;63.12;95556.22;10544779;28;20106;-31
2022/11/03 18:58:52;;;;;;;10.07;6.93;;;;;;;18.51;63.18;95565.50;10536894;28;20031;-31
2022/11/03 19:03:53;;;;;;;7.80;5.47;;;;;;;18.50;62.96;95557.97;10544891;28;20042;-30
2022/11/03 19:08:58;;;;;;;9.40;6.32;;;;;;;18.48;63.12;95560.50;10549704;28;20051;-30
2022/11/03 19:13:59;;;;;;;5.68;4.22;;;;;;;18.48;62.51;95544.47;10546366;28;20028;-31
2022/11/03 19:18:59;;;;;;;7.05;4.35;;;;;;;18.41;62.45;95533.63;10542834;28;20028;-31
2022/11/03 19:23:59;;;;;;;8.90;6.03;;;;;;;18.47;62.87;95540.25;10551667;28;20110;-31
2022/11/03 19:29:05;;;;;;;6.87;4.20;;;;;;;18.46;62.53;95521.69;10550540;28;20398;-32
2022/11/03 19:34:11;;;;;;;5.70;3.70;;;;;;;18.44;62.22;95528.50;10546484;28;20318;-30
2022/11/03 19:39:26;;;;;;;6.57;4.73;;;;;;;18.46;62.25;95515.78;10550151;28;20554;-31
2022/11/03 19:44:27;;;;;;;10.07;6.93;;;;;;;18.45;64.17;95503.97;10546593;28;20023;-30
2022/11/03 19:49:27;;;;;;;11.87;6.60;;;;;;;18.48;63.99;95506.44;10540567;28;20238;-30
2022/11/03 19:54:28;;;;;;;8.87;6.57;;;;;;;18.52;63.97;95503.84;10545712;28;20048;-31
2022/11/03 19:59:28;;;;;;;7.40;6.38;;;;;;;18.51;63.73;95501.34;10559412;28;20324;-30
2022/11/03 20:04:28;;;;;;;10.23;5.10;;;;;;;18.45;63.36;95504.84;10548388;28;20382;-31
2022/11/03 20:09:29;;;;;;;8.20;6.97;;;;;;;18.44;63.49;95523.44;10549204;27;20410;-31
2022/11/03 20:14:30;;;;;;;8.95;5.00;;;;;;;18.43;63.52;95536.13;10543615;28;20802;-31
2022/11/03 20:19:31;;;;;;;8.30;5.60;;;;;;;18.45;63.49;95534.38;10542615;28;20107;-30
2022/11/03 20:24:31;;;;;;;6.05;4.95;;;;;;;18.40;63.36;95567.41;10556913;28;20035;-30
2022/11/03 20:29:32;;;;;;;7.32;5.63;;;;;;;18.35;63.56;95578.50;10558455;27;20034;-31
2022/11/03 20:34:32;;;;;;;7.23;5.03;;;;;;;18.46;63.26;95637.44;10557400;27;20031;-31
2022/11/03 20:39:32;;;;;;;6.87;5.10;;;;;;;18.44;63.94;95650.16;10548527;28;20678;-31
2022/11/03 20:44:33;;;;;;;9.83;5.80;;;;;;;18.44;64.12;95670.41;10546095;27;20028;-31
2022/11/03 20:49:33;;;;;;;7.73;5.30;;;;;;;18.49;64.93;95677.94;10550861;27;20582;-31
2022/11/03 20:54:34;;;;;;;6.37;5.20;;;;;;;18.52;65.00;95668.59;10548756;28;20036;-31
2022/11/03 20:59:34;;;;;;;8.13;5.87;;;;;;;18.43;64.94;95675.50;10557391;28;20114;-31
2022/11/03 21:04:35;;;;;;;9.48;5.63;;;;;;;18.48;64.72;95686.38;10560870;28;20288;-30
2022/11/03 21:09:35;;;;;;;19.90;5.03;;;;;;;18.47;63.96;95694.84;10564006;28;20371;-31
2022/11/03 21:14:36;;;;;;;6.83;5.47;;;;;;;18.44;64.06;95707.59;10565132;28;20027;-31
2022/11/03 21:20:19;;;;;;;5.43;4.18;;;;;;;18.43;63.92;95749.81;10567458;28;20498;-30
2022/11/03 21:25:01;;;;;;;8.77;4.55;;;;;;;18.41;64.26;95763.38;10545046;28;20055;-32
2022/11/03 21:30:01;;;;;;;7.70;4.53;;;;;;;18.40;64.32;95784.53;10561022;28;20470;-31
2022/11/03 21:35:03;;;;;;;8.95;4.80;;;;;;;18.41;64.20;95794.63;10566077;28;20267;-31
2022/11/03 21:40:04;;;;;;;6.10;4.35;;;;;;;18.42;64.35;95803.06;10564123;28;20077;-31
2022/11/03 21:45:05;;;;;;;6.55;4.60;;;;;;;18.41;64.06;95801.41;10568358;28;20556;-31
2022/11/03 21:50:06;;;;;;;6.57;4.28;;;;;;;18.41;63.61;95817.44;10562593;28;20031;-31
2022/11/03 21:55:06;;;;;;;8.60;4.43;;;;;;;18.40;64.39;95814.94;10567975;28;20108;-30
2022/11/03 22:00:07;;;;;;;9.20;4.68;;;;;;;18.47;65.65;95821.56;10566409;28;20047;-32
2022/11/03 22:05:08;;;;;;;11.10;4.75;;;;;;;18.48;65.43;95801.28;10564291;28;20454;-32
2022/11/03 22:10:08;;;;;;;9.00;4.43;;;;;;;18.48;64.99;95828.31;10561208;28;20032;-31
2022/11/03 22:36:24;;;;;;;6.43;4.10;;;;;;;18.38;64.48;95824.22;10568130;28;20424;-30
2022/11/03 22:46:43;;;;;;;5.40;4.28;;;;;;;18.38;64.19;95814.09;10549424;28;20028;-31
2022/11/03 22:51:44;;;;;;;5.53;4.17;;;;;;;18.38;64.59;95816.63;10567387;28;20042;-31
2022/11/03 22:56:44;;;;;;;8.10;4.00;;;;;;;18.32;64.37;95821.81;10563461;28;20023;-30
2022/11/03 23:01:44;;;;;;;8.67;3.83;;;;;;;18.38;64.13;95847.91;10557176;28;20024;-31
2022/11/03 23:06:45;;;;;;;9.83;3.93;;;;;;;18.40;65.85;95833.50;10566974;28;20086;-31
2022/11/03 23:11:45;;;;;;;6.53;4.10;;;;;;;18.45;65.40;95843.56;10563455;28;20081;-30
2022/11/03 23:16:46;;;;;;;6.60;4.03;;;;;;;18.47;65.04;95829.16;10566197;28;20031;-32
2022/11/03 23:21:49;;;;;;;3.78;3.22;;;;;;;18.41;64.30;95826.75;10563408;28;20023;-29
2022/11/03 23:26:49;;;;;;;7.68;4.03;;;;;;;18.38;64.12;95826.75;10559872;28;20034;-31
2022/11/03 23:31:50;;;;;;;5.88;3.65;;;;;;;18.35;64.11;95827.63;10557153;28;20098;-30
2022/11/03 23:36:51;;;;;;;5.18;3.58;;;;;;;18.37;64.10;95840.28;10559248;28;20188;-31
2022/11/03 23:41:51;;;;;;;7.13;3.30;;;;;;;18.36;64.21;95854.69;10565467;28;20047;-30
2022/11/03 23:52:11;;;;;;;5.30;3.33;;;;;;;18.37;64.34;95866.50;10560283;28;20035;-30
